Denison, Iowa
Current Conditions -  °F | °C
As of 11:35 PM on Tuesday 25 Nov 2014 (Local Time) from KDNS Reporting Station
Haze Haze  
Wind Chill: -6°   Ceiling: 2500
Heat Index:   Visibility: 4mi
Dew Point: -1°   Wind: 14mph
Humidity: 93%   Direction: 160°SSE
Pressure: 29.85"   Gusts: NA
Location:  42.01°N, 95.35°W
Report Text: KDNS 260535Z AUTO 16012KT 4SM BR BKN025 OVC032 M00/M01 A2985 RMK AO2
Loading
Personal Weather Stations






























Interactive Weather Map New forecast layout! Learn more

10-Day Weather Forecast

Advertisements
Track Severe Weather on mobile